sensor_id;sensor_type;location;lat;lon;timestamp;P1;durP1;ratioP1;P2;durP2;ratioP2
7398;SDS011;3740;50.700;7.184;2022-08-05T15:09:39;4.07;;;3.72;;
7398;SDS011;3740;50.700;7.184;2022-08-05T15:12:25;4.97;;;3.70;;
7398;SDS011;3740;50.700;7.184;2022-08-05T15:15:11;3.83;;;3.20;;
7398;SDS011;3740;50.700;7.184;2022-08-05T15:17:57;5.30;;;4.07;;
7398;SDS011;3740;50.700;7.184;2022-08-05T15:20:43;4.03;;;3.72;;
7398;SDS011;3740;50.700;7.184;2022-08-05T15:23:29;4.55;;;4.10;;
7398;SDS011;3740;50.700;7.184;2022-08-05T15:26:14;3.85;;;3.55;;
7398;SDS011;3740;50.700;7.184;2022-08-05T15:29:01;5.32;;;4.50;;
7398;SDS011;3740;50.700;7.184;2022-08-05T15:31:47;5.10;;;4.63;;
7398;SDS011;3740;50.700;7.184;2022-08-05T15:34:33;6.13;;;4.25;;
7398;SDS011;3740;50.700;7.184;2022-08-05T15:37:19;5.75;;;4.32;;
7398;SDS011;3740;50.700;7.184;2022-08-05T15:40:05;5.15;;;4.20;;
7398;SDS011;3740;50.700;7.184;2022-08-05T15:42:51;4.18;;;3.78;;
7398;SDS011;3740;50.700;7.184;2022-08-05T15:45:38;5.50;;;4.47;;
7398;SDS011;3740;50.700;7.184;2022-08-05T15:48:28;5.75;;;4.50;;
7398;SDS011;3740;50.700;7.184;2022-08-05T15:51:14;5.00;;;4.13;;
7398;SDS011;3740;50.700;7.184;2022-08-05T15:54:00;4.10;;;3.67;;
7398;SDS011;3740;50.700;7.184;2022-08-05T15:56:46;4.13;;;3.25;;
7398;SDS011;3740;50.700;7.184;2022-08-05T15:59:32;4.75;;;3.67;;
7398;SDS011;3740;50.700;7.184;2022-08-05T16:02:19;4.43;;;3.40;;
7398;SDS011;3740;50.700;7.184;2022-08-05T16:05:05;6.10;;;2.90;;
7398;SDS011;3740;50.700;7.184;2022-08-05T16:07:51;3.42;;;3.13;;
7398;SDS011;3740;50.700;7.184;2022-08-05T16:10:37;3.63;;;3.00;;
7398;SDS011;3740;50.700;7.184;2022-08-05T16:13:23;3.08;;;2.78;;
7398;SDS011;3740;50.700;7.184;2022-08-05T16:16:09;2.60;;;2.40;;
7398;SDS011;3740;50.700;7.184;2022-08-05T16:18:56;2.50;;;2.30;;
7398;SDS011;3740;50.700;7.184;2022-08-05T16:21:42;4.30;;;2.42;;
7398;SDS011;3740;50.700;7.184;2022-08-05T16:24:28;2.40;;;2.20;;
7398;SDS011;3740;50.700;7.184;2022-08-05T16:27:14;2.60;;;2.35;;
7398;SDS011;3740;50.700;7.184;2022-08-05T16:30:00;3.17;;;2.38;;
7398;SDS011;3740;50.700;7.184;2022-08-05T16:32:46;4.93;;;2.63;;
7398;SDS011;3740;50.700;7.184;2022-08-05T16:35:32;2.92;;;2.65;;
7398;SDS011;3740;50.700;7.184;2022-08-05T16:38:18;2.97;;;2.70;;
7398;SDS011;3740;50.700;7.184;2022-08-05T16:41:03;2.60;;;2.40;;
7398;SDS011;3740;50.700;7.184;2022-08-05T16:43:49;3.42;;;2.50;;
7398;SDS011;3740;50.700;7.184;2022-08-05T16:46:35;3.20;;;2.80;;
7398;SDS011;3740;50.700;7.184;2022-08-05T16:49:21;2.60;;;2.40;;
7398;SDS011;3740;50.700;7.184;2022-08-05T16:52:08;3.33;;;2.78;;
7398;SDS011;3740;50.700;7.184;2022-08-05T16:54:53;2.78;;;2.53;;
7398;SDS011;3740;50.700;7.184;2022-08-05T16:57:39;3.42;;;2.67;;
7398;SDS011;3740;50.700;7.184;2022-08-05T17:00:25;4.40;;;2.88;;
7398;SDS011;3740;50.700;7.184;2022-08-05T17:03:11;2.28;;;2.17;;
7398;SDS011;3740;50.700;7.184;2022-08-05T17:05:57;3.10;;;2.50;;
7398;SDS011;3740;50.700;7.184;2022-08-05T17:08:44;3.10;;;2.80;;
7398;SDS011;3740;50.700;7.184;2022-08-05T17:11:30;3.72;;;2.92;;
7398;SDS011;3740;50.700;7.184;2022-08-05T17:14:16;3.22;;;2.92;;
7398;SDS011;3740;50.700;7.184;2022-08-05T17:17:02;2.92;;;2.70;;
7398;SDS011;3740;50.700;7.184;2022-08-05T17:19:49;3.33;;;2.80;;
7398;SDS011;3740;50.700;7.184;2022-08-05T17:22:35;2.80;;;2.60;;
7398;SDS011;3740;50.700;7.184;2022-08-05T17:25:21;4.75;;;2.97;;
7398;SDS011;3740;50.700;7.184;2022-08-05T17:28:08;2.72;;;2.53;;
7398;SDS011;3740;50.700;7.184;2022-08-05T17:30:53;3.60;;;2.53;;
7398;SDS011;3740;50.700;7.184;2022-08-05T17:33:39;2.60;;;2.40;;
7398;SDS011;3740;50.700;7.184;2022-08-05T17:36:25;3.08;;;2.40;;
7398;SDS011;3740;50.700;7.184;2022-08-05T17:39:11;3.00;;;2.60;;
7398;SDS011;3740;50.700;7.184;2022-08-05T17:41:57;2.60;;;2.40;;
7398;SDS011;3740;50.700;7.184;2022-08-05T17:44:43;3.47;;;2.53;;
7398;SDS011;3740;50.700;7.184;2022-08-05T17:47:29;2.15;;;1.90;;
7398;SDS011;3740;50.700;7.184;2022-08-05T17:50:14;3.00;;;2.30;;
7398;SDS011;3740;50.700;7.184;2022-08-05T17:53:02;3.10;;;2.30;;
7398;SDS011;3740;50.700;7.184;2022-08-05T17:55:49;2.30;;;2.10;;
7398;SDS011;3740;50.700;7.184;2022-08-05T17:58:35;2.70;;;2.13;;
7398;SDS011;3740;50.700;7.184;2022-08-05T18:01:22;2.47;;;2.05;;
7398;SDS011;3740;50.700;7.184;2022-08-05T18:04:08;2.72;;;1.67;;
7398;SDS011;3740;50.700;7.184;2022-08-05T18:06:54;3.47;;;1.95;;
7398;SDS011;3740;50.700;7.184;2022-08-05T18:09:39;2.45;;;2.10;;
7398;SDS011;3740;50.700;7.184;2022-08-05T18:12:26;3.20;;;1.80;;
7398;SDS011;3740;50.700;7.184;2022-08-05T18:15:12;1.67;;;1.58;;
7398;SDS011;3740;50.700;7.184;2022-08-05T18:17:58;3.05;;;2.20;;
7398;SDS011;3740;50.700;7.184;2022-08-05T18:20:44;2.15;;;1.80;;
7398;SDS011;3740;50.700;7.184;2022-08-05T18:23:30;2.33;;;1.38;;
7398;SDS011;3740;50.700;7.184;2022-08-05T18:26:16;2.60;;;1.52;;
7398;SDS011;3740;50.700;7.184;2022-08-05T18:29:02;1.85;;;1.52;;
7398;SDS011;3740;50.700;7.184;2022-08-05T18:31:48;2.97;;;1.80;;
7398;SDS011;3740;50.700;7.184;2022-08-05T18:34:34;2.60;;;1.58;;
7398;SDS011;3740;50.700;7.184;2022-08-05T18:37:19;1.50;;;1.40;;
7398;SDS011;3740;50.700;7.184;2022-08-05T18:40:06;1.73;;;1.48;;
7398;SDS011;3740;50.700;7.184;2022-08-05T18:42:53;1.70;;;1.60;;
7398;SDS011;3740;50.700;7.184;2022-08-05T18:45:40;2.63;;;1.52;;
7398;SDS011;3740;50.700;7.184;2022-08-05T18:48:26;1.65;;;1.23;;
7398;SDS011;3740;50.700;7.184;2022-08-05T18:51:14;3.25;;;1.40;;
7398;SDS011;3740;50.700;7.184;2022-08-05T18:54:18;2.28;;;1.33;;
7398;SDS011;3740;50.700;7.184;2022-08-05T18:57:04;1.40;;;1.30;;
7398;SDS011;3740;50.700;7.184;2022-08-05T18:59:50;2.03;;;1.20;;
7398;SDS011;3740;50.700;7.184;2022-08-05T19:02:36;1.80;;;1.02;;
7398;SDS011;3740;50.700;7.184;2022-08-05T19:05:22;1.95;;;1.08;;
7398;SDS011;3740;50.700;7.184;2022-08-05T19:08:08;1.52;;;1.15;;
7398;SDS011;3740;50.700;7.184;2022-08-05T19:10:55;2.35;;;1.15;;
7398;SDS011;3740;50.700;7.184;2022-08-05T19:13:42;2.17;;;1.20;;
7398;SDS011;3740;50.700;7.184;2022-08-05T19:16:28;1.83;;;1.52;;
7398;SDS011;3740;50.700;7.184;2022-08-05T19:19:14;1.38;;;1.00;;
7398;SDS011;3740;50.700;7.184;2022-08-05T19:21:59;3.28;;;1.10;;
7398;SDS011;3740;50.700;7.184;2022-08-05T19:24:45;1.88;;;1.13;;
7398;SDS011;3740;50.700;7.184;2022-08-05T19:27:31;1.90;;;1.20;;
7398;SDS011;3740;50.700;7.184;2022-08-05T19:30:17;1.85;;;1.35;;
7398;SDS011;3740;50.700;7.184;2022-08-05T19:33:04;1.52;;;1.15;;
7398;SDS011;3740;50.700;7.184;2022-08-05T19:35:50;1.02;;;0.90;;
7398;SDS011;3740;50.700;7.184;2022-08-05T19:38:36;1.52;;;1.17;;
7398;SDS011;3740;50.700;7.184;2022-08-05T19:41:21;1.58;;;1.23;;
7398;SDS011;3740;50.700;7.184;2022-08-05T19:44:07;2.13;;;1.30;;
7398;SDS011;3740;50.700;7.184;2022-08-05T19:46:53;1.33;;;1.20;;
7398;SDS011;3740;50.700;7.184;2022-08-05T19:49:41;1.85;;;1.20;;
7398;SDS011;3740;50.700;7.184;2022-08-05T19:52:26;1.50;;;1.38;;
7398;SDS011;3740;50.700;7.184;2022-08-05T19:55:12;1.60;;;1.20;;
7398;SDS011;3740;50.700;7.184;2022-08-05T19:57:58;1.17;;;1.00;;
7398;SDS011;3740;50.700;7.184;2022-08-05T20:00:44;1.77;;;1.48;;
7398;SDS011;3740;50.700;7.184;2022-08-05T20:03:30;1.35;;;1.25;;
7398;SDS011;3740;50.700;7.184;2022-08-05T20:06:16;2.25;;;1.35;;
7398;SDS011;3740;50.700;7.184;2022-08-05T20:09:03;1.55;;;1.13;;
7398;SDS011;3740;50.700;7.184;2022-08-05T20:11:49;1.33;;;1.20;;
7398;SDS011;3740;50.700;7.184;2022-08-05T20:14:35;1.60;;;1.40;;
7398;SDS011;3740;50.700;7.184;2022-08-05T20:17:21;3.13;;;1.45;;
7398;SDS011;3740;50.700;7.184;2022-08-05T20:20:07;1.30;;;1.20;;
7398;SDS011;3740;50.700;7.184;2022-08-05T20:22:53;1.20;;;1.13;;
7398;SDS011;3740;50.700;7.184;2022-08-05T20:25:39;1.33;;;1.10;;
7398;SDS011;3740;50.700;7.184;2022-08-05T20:28:25;1.75;;;1.27;;
7398;SDS011;3740;50.700;7.184;2022-08-05T20:31:11;1.98;;;1.55;;
7398;SDS011;3740;50.700;7.184;2022-08-05T20:33:57;1.85;;;1.38;;
7398;SDS011;3740;50.700;7.184;2022-08-05T20:36:43;1.40;;;1.30;;
7398;SDS011;3740;50.700;7.184;2022-08-05T20:39:29;2.15;;;1.52;;
7398;SDS011;3740;50.700;7.184;2022-08-05T20:42:14;3.67;;;1.50;;
7398;SDS011;3740;50.700;7.184;2022-08-05T20:45:00;2.03;;;1.30;;
7398;SDS011;3740;50.700;7.184;2022-08-05T20:47:47;1.25;;;1.10;;
7398;SDS011;3740;50.700;7.184;2022-08-05T20:50:32;2.00;;;1.45;;
7398;SDS011;3740;50.700;7.184;2022-08-05T20:53:18;1.63;;;1.30;;
7398;SDS011;3740;50.700;7.184;2022-08-05T20:56:04;1.25;;;1.15;;
7398;SDS011;3740;50.700;7.184;2022-08-05T20:58:50;1.10;;;1.00;;
7398;SDS011;3740;50.700;7.184;2022-08-05T21:01:36;1.95;;;1.30;;
7398;SDS011;3740;50.700;7.184;2022-08-05T21:04:22;1.30;;;1.20;;
7398;SDS011;3740;50.700;7.184;2022-08-05T21:07:08;2.40;;;1.50;;
7398;SDS011;3740;50.700;7.184;2022-08-05T21:09:54;2.65;;;1.50;;
7398;SDS011;3740;50.700;7.184;2022-08-05T21:12:40;3.08;;;1.65;;
7398;SDS011;3740;50.700;7.184;2022-08-05T21:15:26;1.20;;;1.10;;
7398;SDS011;3740;50.700;7.184;2022-08-05T21:18:12;1.67;;;1.55;;
7398;SDS011;3740;50.700;7.184;2022-08-05T21:20:58;2.05;;;1.35;;
7398;SDS011;3740;50.700;7.184;2022-08-05T21:23:44;2.97;;;1.20;;
7398;SDS011;3740;50.700;7.184;2022-08-05T21:26:30;1.58;;;1.30;;
7398;SDS011;3740;50.700;7.184;2022-08-05T21:29:16;1.40;;;1.30;;
7398;SDS011;3740;50.700;7.184;2022-08-05T21:32:02;1.88;;;1.70;;
7398;SDS011;3740;50.700;7.184;2022-08-05T21:34:48;2.58;;;1.40;;
7398;SDS011;3740;50.700;7.184;2022-08-05T21:37:34;1.95;;;1.27;;
7398;SDS011;3740;50.700;7.184;2022-08-05T21:40:21;1.60;;;1.50;;
7398;SDS011;3740;50.700;7.184;2022-08-05T21:43:07;1.80;;;1.38;;
7398;SDS011;3740;50.700;7.184;2022-08-05T21:45:53;1.85;;;1.60;;
7398;SDS011;3740;50.700;7.184;2022-08-05T21:48:39;1.90;;;1.77;;
7398;SDS011;3740;50.700;7.184;2022-08-05T21:51:25;1.98;;;1.65;;
7398;SDS011;3740;50.700;7.184;2022-08-05T21:54:11;2.72;;;1.58;;
7398;SDS011;3740;50.700;7.184;2022-08-05T21:56:57;2.78;;;1.50;;
7398;SDS011;3740;50.700;7.184;2022-08-05T21:59:43;1.80;;;1.70;;
7398;SDS011;3740;50.700;7.184;2022-08-05T22:02:29;2.78;;;1.83;;
7398;SDS011;3740;50.700;7.184;2022-08-05T22:05:15;3.47;;;2.00;;
7398;SDS011;3740;50.700;7.184;2022-08-05T22:08:01;1.90;;;1.60;;
7398;SDS011;3740;50.700;7.184;2022-08-05T22:10:47;1.67;;;1.58;;
7398;SDS011;3740;50.700;7.184;2022-08-05T22:13:33;2.80;;;1.80;;
7398;SDS011;3740;50.700;7.184;2022-08-05T22:16:19;2.63;;;1.73;;
7398;SDS011;3740;50.700;7.184;2022-08-05T22:19:05;1.70;;;1.60;;
7398;SDS011;3740;50.700;7.184;2022-08-05T22:21:51;2.60;;;1.67;;
7398;SDS011;3740;50.700;7.184;2022-08-05T22:24:37;3.17;;;1.65;;
7398;SDS011;3740;50.700;7.184;2022-08-05T22:27:42;1.75;;;1.63;;
7398;SDS011;3740;50.700;7.184;2022-08-05T22:30:28;2.88;;;1.58;;
7398;SDS011;3740;50.700;7.184;2022-08-05T22:33:14;2.97;;;1.77;;
7398;SDS011;3740;50.700;7.184;2022-08-05T22:36:00;1.73;;;1.63;;
7398;SDS011;3740;50.700;7.184;2022-08-05T22:38:46;2.45;;;1.70;;
7398;SDS011;3740;50.700;7.184;2022-08-05T22:41:31;2.40;;;1.58;;
7398;SDS011;3740;50.700;7.184;2022-08-05T22:44:19;3.70;;;1.92;;
7398;SDS011;3740;50.700;7.184;2022-08-05T22:47:05;1.45;;;1.35;;
7398;SDS011;3740;50.700;7.184;2022-08-05T22:49:51;1.83;;;1.70;;
7398;SDS011;3740;50.700;7.184;2022-08-05T22:52:37;2.47;;;1.88;;
7398;SDS011;3740;50.700;7.184;2022-08-05T22:55:23;1.83;;;1.60;;
7398;SDS011;3740;50.700;7.184;2022-08-05T22:58:09;2.00;;;1.67;;
7398;SDS011;3740;50.700;7.184;2022-08-05T23:00:55;1.70;;;1.60;;
7398;SDS011;3740;50.700;7.184;2022-08-05T23:03:41;1.58;;;1.48;;
7398;SDS011;3740;50.700;7.184;2022-08-05T23:06:27;1.55;;;1.30;;
7398;SDS011;3740;50.700;7.184;2022-08-05T23:09:13;1.48;;;1.38;;
7398;SDS011;3740;50.700;7.184;2022-08-05T23:11:59;2.35;;;1.63;;
7398;SDS011;3740;50.700;7.184;2022-08-05T23:14:45;1.75;;;1.65;;
7398;SDS011;3740;50.700;7.184;2022-08-05T23:17:31;2.97;;;1.70;;
7398;SDS011;3740;50.700;7.184;2022-08-05T23:20:17;3.17;;;1.63;;
7398;SDS011;3740;50.700;7.184;2022-08-05T23:23:03;2.35;;;1.67;;
7398;SDS011;3740;50.700;7.184;2022-08-05T23:25:49;2.20;;;1.55;;
7398;SDS011;3740;50.700;7.184;2022-08-05T23:28:35;2.58;;;1.80;;
7398;SDS011;3740;50.700;7.184;2022-08-05T23:31:21;2.10;;;1.50;;
7398;SDS011;3740;50.700;7.184;2022-08-05T23:34:07;2.08;;;1.60;;
7398;SDS011;3740;50.700;7.184;2022-08-05T23:36:53;1.60;;;1.50;;
7398;SDS011;3740;50.700;7.184;2022-08-05T23:39:38;1.83;;;1.48;;
7398;SDS011;3740;50.700;7.184;2022-08-05T23:42:24;2.25;;;1.60;;
7398;SDS011;3740;50.700;7.184;2022-08-05T23:45:10;2.05;;;1.65;;
7398;SDS011;3740;50.700;7.184;2022-08-05T23:47:56;2.67;;;1.77;;
7398;SDS011;3740;50.700;7.184;2022-08-05T23:50:42;3.10;;;1.80;;
7398;SDS011;3740;50.700;7.184;2022-08-05T23:53:28;2.20;;;1.80;;
7398;SDS011;3740;50.700;7.184;2022-08-05T23:56:14;2.08;;;1.85;;
7398;SDS011;3740;50.700;7.184;2022-08-05T23:59:00;2.10;;;1.88;;
